Aérodrome :
LOGIN :

S'inscrire | Disclaimer

   EN    FR    IT 

 










Légende :    VFR   VFR Marginal   IFR   IFR Intensif   IFR Très Intensif
Visi : 
Plafond : 
>= 8 km
>= 3000ft
5 à 8 km
1000 à 3000 ft
1500m à 5 km
500 à 1000 ft
800 à 1500m
200 à 500 ft
< 800m
< 200 ft
Symboles :   Orages  Brouillard  Fortes neiges  Fortes précipitations  Vent > 20 kt
SIGMETs :   Divers  Orages  Givrage  Turbulence  Onde Orograph.  Cendres Volcan.







- Altitude de l'aérodrome : 16 ft
- Code IATA : SDR


LEXJ - Santander Cantabria

DERNIER METAR :
  • 220000Z AUTO 22008KT 9999 SCT050 BKN070 07/05 Q1023

METARs EXPIRÉS :
  • 212330Z AUTO 22008KT 9999 BKN070 08/05 Q1023
  • 212300Z AUTO 22007KT 9999 FEW068 07/05 Q1023
  • 212230Z AUTO 22007KT 9999 FEW060 07/05 Q1023
  • 212200Z 22007KT 9999 FEW066 08/05 Q1023
  • 212130Z 21007KT 9999 SCT066 08/05 Q1023

TAF TAF LEXJ
Valide du 21 à 21h jusqu'au 22 à 21h UTC


212000Z 2121/2221 24009KT 9999 SCT030 BKN045 TX11/2215Z TN07/2206Z
TEMPO 2121/2212 25015G25KT
BECMG 2209/2212 29015G27KT
TEMPO 2206/2215 RA
PROB40
TEMPO 2209/2221 3000 RA BKN014
Pas de NOTAMs connus pour ce terrain.



MET'MAP, la Météo Aéronautique d'un coup d'oeil ! - Copyright ORBIFLY Décembre 2007 - Disclaimer

ORBIFLY MET'MAP TEAM :

Programmation & Développement : Alexandra Zaïnal
Conception & Développement : Baudouin d'Aumeries
Co-Programmation & Développement : Marc-Olivier Méhu
Soutien technique & logistique : Manuel Goepfert

Contact : metmap@orbifly.com




SOURCES & CREDITS :

   NOAA